sensor_id;sensor_type;location;lat;lon;timestamp;pressure;altitude;pressure_sealevel;temperature;humidity
65832;BME280;52593;42.648;23.332;2023-03-04T00:01:39;94559.06;;;4.01;100.00
65832;BME280;52593;42.648;23.332;2023-03-04T00:04:04;94562.91;;;4.17;100.00
65832;BME280;52593;42.648;23.332;2023-03-04T00:06:30;94565.13;;;4.21;100.00
65832;BME280;52593;42.648;23.332;2023-03-04T00:08:55;94558.16;;;4.20;100.00
65832;BME280;52593;42.648;23.332;2023-03-04T00:11:21;94550.34;;;4.19;100.00
65832;BME280;52593;42.648;23.332;2023-03-04T00:13:46;94545.78;;;4.11;100.00
65832;BME280;52593;42.648;23.332;2023-03-04T00:16:11;94537.31;;;4.07;100.00
65832;BME280;52593;42.648;23.332;2023-03-04T00:18:37;94538.13;;;4.08;100.00
65832;BME280;52593;42.648;23.332;2023-03-04T00:21:02;94546.25;;;3.97;100.00
65832;BME280;52593;42.648;23.332;2023-03-04T00:23:28;94546.94;;;3.89;100.00
65832;BME280;52593;42.648;23.332;2023-03-04T00:25:53;94529.13;;;3.81;100.00
65832;BME280;52593;42.648;23.332;2023-03-04T00:28:19;94540.41;;;3.83;100.00
65832;BME280;52593;42.648;23.332;2023-03-04T00:30:44;94546.53;;;3.84;100.00
65832;BME280;52593;42.648;23.332;2023-03-04T00:33:09;94547.78;;;3.80;100.00
65832;BME280;52593;42.648;23.332;2023-03-04T00:35:35;94548.91;;;3.87;100.00
65832;BME280;52593;42.648;23.332;2023-03-04T00:38:00;94532.91;;;3.79;100.00
65832;BME280;52593;42.648;23.332;2023-03-04T00:40:26;94534.84;;;3.77;100.00
65832;BME280;52593;42.648;23.332;2023-03-04T00:42:51;94529.69;;;3.75;100.00
65832;BME280;52593;42.648;23.332;2023-03-04T00:45:17;94541.84;;;3.68;100.00
65832;BME280;52593;42.648;23.332;2023-03-04T00:47:42;94545.31;;;3.68;100.00
65832;BME280;52593;42.648;23.332;2023-03-04T00:50:08;94537.50;;;3.67;100.00
65832;BME280;52593;42.648;23.332;2023-03-04T00:52:34;94541.00;;;3.77;100.00
65832;BME280;52593;42.648;23.332;2023-03-04T00:54:59;94528.84;;;3.84;100.00
65832;BME280;52593;42.648;23.332;2023-03-04T00:57:24;94540.94;;;3.97;100.00
65832;BME280;52593;42.648;23.332;2023-03-04T00:59:50;94527.00;;;3.95;100.00
65832;BME280;52593;42.648;23.332;2023-03-04T01:02:15;94527.00;;;3.95;100.00
65832;BME280;52593;42.648;23.332;2023-03-04T01:04:41;94538.16;;;3.88;100.00
65832;BME280;52593;42.648;23.332;2023-03-04T01:07:07;94540.66;;;3.90;100.00
65832;BME280;52593;42.648;23.332;2023-03-04T01:09:32;94535.13;;;3.83;100.00
65832;BME280;52593;42.648;23.332;2023-03-04T01:11:58;94526.63;;;3.80;100.00
65832;BME280;52593;42.648;23.332;2023-03-04T01:14:23;94521.84;;;3.93;100.00
65832;BME280;52593;42.648;23.332;2023-03-04T01:16:49;94530.06;;;4.00;100.00
65832;BME280;52593;42.648;23.332;2023-03-04T01:19:15;94523.69;;;3.92;100.00
65832;BME280;52593;42.648;23.332;2023-03-04T01:21:40;94519.50;;;4.00;100.00
65832;BME280;52593;42.648;23.332;2023-03-04T01:24:06;94520.69;;;4.05;100.00
65832;BME280;52593;42.648;23.332;2023-03-04T01:26:31;94522.66;;;4.03;100.00
65832;BME280;52593;42.648;23.332;2023-03-04T01:28:57;94516.41;;;3.95;100.00
65832;BME280;52593;42.648;23.332;2023-03-04T01:31:22;94520.59;;;3.87;100.00
65832;BME280;52593;42.648;23.332;2023-03-04T01:33:48;94509.88;;;3.89;100.00
65832;BME280;52593;42.648;23.332;2023-03-04T01:36:13;94505.97;;;3.93;100.00
65832;BME280;52593;42.648;23.332;2023-03-04T01:38:38;94508.63;;;3.93;100.00
65832;BME280;52593;42.648;23.332;2023-03-04T01:41:04;94511.41;;;3.91;100.00
65832;BME280;52593;42.648;23.332;2023-03-04T01:43:30;94506.53;;;3.87;100.00
65832;BME280;52593;42.648;23.332;2023-03-04T01:45:57;94500.56;;;3.75;100.00
65832;BME280;52593;42.648;23.332;2023-03-04T01:48:26;94505.47;;;3.70;100.00
65832;BME280;52593;42.648;23.332;2023-03-04T01:50:52;94500.88;;;3.72;100.00
65832;BME280;52593;42.648;23.332;2023-03-04T01:53:26;94500.88;;;3.72;100.00
65832;BME280;52593;42.648;23.332;2023-03-04T01:56:10;94490.84;;;3.66;100.00
65832;BME280;52593;42.648;23.332;2023-03-04T01:58:36;94504.22;;;3.74;100.00
65832;BME280;52593;42.648;23.332;2023-03-04T02:01:01;94498.94;;;3.74;100.00
65832;BME280;52593;42.648;23.332;2023-03-04T02:03:27;94494.31;;;3.76;100.00
65832;BME280;52593;42.648;23.332;2023-03-04T02:05:53;94495.28;;;3.75;100.00
65832;BME280;52593;42.648;23.332;2023-03-04T02:08:21;94492.81;;;3.64;100.00
65832;BME280;52593;42.648;23.332;2023-03-04T02:10:47;94489.22;;;3.65;100.00
65832;BME280;52593;42.648;23.332;2023-03-04T02:13:14;94491.00;;;3.74;100.00
65832;BME280;52593;42.648;23.332;2023-03-04T02:15:40;94485.97;;;3.71;100.00
65832;BME280;52593;42.648;23.332;2023-03-04T02:18:14;94479.16;;;3.68;100.00
65832;BME280;52593;42.648;23.332;2023-03-04T02:26:18;94493.63;;;3.64;100.00
65832;BME280;52593;42.648;23.332;2023-03-04T02:28:45;94488.63;;;3.71;100.00
65832;BME280;52593;42.648;23.332;2023-03-04T02:33:43;94492.00;;;3.63;99.64
65832;BME280;52593;42.648;23.332;2023-03-04T02:36:09;94481.56;;;3.62;99.62
65832;BME280;52593;42.648;23.332;2023-03-04T02:38:34;94486.84;;;3.62;99.37
65832;BME280;52593;42.648;23.332;2023-03-04T02:40:59;94492.81;;;3.64;99.54
65832;BME280;52593;42.648;23.332;2023-03-04T02:43:25;94479.47;;;3.55;99.67
65832;BME280;52593;42.648;23.332;2023-03-04T02:45:50;94479.19;;;3.59;100.00
65832;BME280;52593;42.648;23.332;2023-03-04T02:48:21;94473.03;;;3.58;100.00
65832;BME280;52593;42.648;23.332;2023-03-04T02:50:51;94476.13;;;3.53;100.00
65832;BME280;52593;42.648;23.332;2023-03-04T02:53:17;94472.38;;;3.36;100.00
65832;BME280;52593;42.648;23.332;2023-03-04T02:55:45;94472.69;;;3.43;100.00
65832;BME280;52593;42.648;23.332;2023-03-04T02:58:11;94472.53;;;3.45;100.00
65832;BME280;52593;42.648;23.332;2023-03-04T03:00:37;94474.47;;;3.52;100.00
65832;BME280;52593;42.648;23.332;2023-03-04T03:03:03;94473.47;;;3.53;100.00
65832;BME280;52593;42.648;23.332;2023-03-04T03:05:30;94470.97;;;3.52;100.00
65832;BME280;52593;42.648;23.332;2023-03-04T03:07:56;94476.97;;;3.44;100.00
65832;BME280;52593;42.648;23.332;2023-03-04T03:10:21;94477.69;;;3.46;100.00
65832;BME280;52593;42.648;23.332;2023-03-04T03:12:47;94468.22;;;3.44;100.00
65832;BME280;52593;42.648;23.332;2023-03-04T03:15:13;94477.25;;;3.51;100.00
65832;BME280;52593;42.648;23.332;2023-03-04T03:17:39;94476.41;;;3.50;100.00
65832;BME280;52593;42.648;23.332;2023-03-04T03:20:05;94478.22;;;3.50;99.92
65832;BME280;52593;42.648;23.332;2023-03-04T03:22:31;94469.03;;;3.44;99.46
65832;BME280;52593;42.648;23.332;2023-03-04T03:24:57;94468.91;;;3.46;99.43
65832;BME280;52593;42.648;23.332;2023-03-04T03:27:22;94462.66;;;3.37;99.58
65832;BME280;52593;42.648;23.332;2023-03-04T03:29:47;94477.13;;;3.43;100.00
65832;BME280;52593;42.648;23.332;2023-03-04T03:32:13;94466.38;;;3.44;99.89
65832;BME280;52593;42.648;23.332;2023-03-04T03:34:38;94465.84;;;3.41;100.00
65832;BME280;52593;42.648;23.332;2023-03-04T03:37:04;94472.97;;;3.40;100.00
65832;BME280;52593;42.648;23.332;2023-03-04T03:39:29;94467.66;;;3.40;100.00
65832;BME280;52593;42.648;23.332;2023-03-04T03:41:54;94470.75;;;3.35;100.00
65832;BME280;52593;42.648;23.332;2023-03-04T03:44:20;94463.47;;;3.28;100.00
65832;BME280;52593;42.648;23.332;2023-03-04T03:46:45;94454.19;;;3.14;100.00
65832;BME280;52593;42.648;23.332;2023-03-04T03:49:11;94452.94;;;3.08;100.00
65832;BME280;52593;42.648;23.332;2023-03-04T03:51:37;94458.78;;;3.12;100.00
65832;BME280;52593;42.648;23.332;2023-03-04T03:54:02;94458.53;;;3.05;100.00
65832;BME280;52593;42.648;23.332;2023-03-04T03:56:27;94455.59;;;2.98;100.00
65832;BME280;52593;42.648;23.332;2023-03-04T03:58:53;94455.31;;;2.92;100.00
65832;BME280;52593;42.648;23.332;2023-03-04T04:01:18;94455.88;;;2.85;100.00
65832;BME280;52593;42.648;23.332;2023-03-04T04:03:43;94455.88;;;2.76;100.00
65832;BME280;52593;42.648;23.332;2023-03-04T04:06:09;94443.22;;;2.70;100.00
65832;BME280;52593;42.648;23.332;2023-03-04T04:08:34;94449.16;;;2.62;100.00
65832;BME280;52593;42.648;23.332;2023-03-04T04:11:00;94451.38;;;2.57;100.00
65832;BME280;52593;42.648;23.332;2023-03-04T04:13:25;94445.25;;;2.27;100.00
65832;BME280;52593;42.648;23.332;2023-03-04T04:15:51;94455.94;;;2.35;100.00
65832;BME280;52593;42.648;23.332;2023-03-04T04:18:16;94439.41;;;2.33;100.00
65832;BME280;52593;42.648;23.332;2023-03-04T04:20:42;94445.09;;;2.28;100.00
65832;BME280;52593;42.648;23.332;2023-03-04T04:23:07;94445.09;;;2.28;100.00
65832;BME280;52593;42.648;23.332;2023-03-04T04:25:33;94452.56;;;2.23;100.00
65832;BME280;52593;42.648;23.332;2023-03-04T04:27:58;94454.13;;;2.26;100.00
65832;BME280;52593;42.648;23.332;2023-03-04T04:30:24;94455.47;;;2.20;100.00
65832;BME280;52593;42.648;23.332;2023-03-04T04:32:49;94440.19;;;2.14;100.00
65832;BME280;52593;42.648;23.332;2023-03-04T04:35:14;94459.38;;;2.16;100.00
65832;BME280;52593;42.648;23.332;2023-03-04T04:37:40;94454.25;;;2.14;100.00
65832;BME280;52593;42.648;23.332;2023-03-04T04:40:06;94447.56;;;2.10;100.00
65832;BME280;52593;42.648;23.332;2023-03-04T04:42:32;94440.59;;;2.09;100.00
65832;BME280;52593;42.648;23.332;2023-03-04T04:44:57;94451.00;;;2.11;100.00
65832;BME280;52593;42.648;23.332;2023-03-04T04:47:23;94447.97;;;2.16;100.00
65832;BME280;52593;42.648;23.332;2023-03-04T04:49:48;94450.06;;;2.22;100.00
65832;BME280;52593;42.648;23.332;2023-03-04T04:52:13;94449.25;;;2.21;100.00
65832;BME280;52593;42.648;23.332;2023-03-04T04:54:39;94458.00;;;2.22;100.00
65832;BME280;52593;42.648;23.332;2023-03-04T04:57:04;94452.84;;;2.10;100.00
65832;BME280;52593;42.648;23.332;2023-03-04T04:59:30;94449.03;;;2.03;100.00
65832;BME280;52593;42.648;23.332;2023-03-04T05:01:55;94461.28;;;2.04;100.00
65832;BME280;52593;42.648;23.332;2023-03-04T05:04:21;94465.16;;;2.00;100.00
65832;BME280;52593;42.648;23.332;2023-03-04T05:06:46;94463.22;;;2.02;100.00
65832;BME280;52593;42.648;23.332;2023-03-04T05:09:12;94464.31;;;2.00;100.00
65832;BME280;52593;42.648;23.332;2023-03-04T05:11:37;94463.44;;;1.89;100.00
65832;BME280;52593;42.648;23.332;2023-03-04T05:14:03;94468.78;;;1.99;100.00
65832;BME280;52593;42.648;23.332;2023-03-04T05:16:28;94468.94;;;2.07;100.00
65832;BME280;52593;42.648;23.332;2023-03-04T05:18:53;94478.41;;;2.20;100.00
65832;BME280;52593;42.648;23.332;2023-03-04T05:21:19;94467.88;;;2.20;100.00
65832;BME280;52593;42.648;23.332;2023-03-04T05:23:44;94478.00;;;2.14;100.00
65832;BME280;52593;42.648;23.332;2023-03-04T05:26:13;94462.28;;;2.13;100.00
65832;BME280;52593;42.648;23.332;2023-03-04T05:28:38;94488.59;;;2.34;100.00
65832;BME280;52593;42.648;23.332;2023-03-04T05:31:04;94488.03;;;2.30;100.00
65832;BME280;52593;42.648;23.332;2023-03-04T05:33:30;94485.81;;;2.26;100.00
65832;BME280;52593;42.648;23.332;2023-03-04T05:35:56;94479.97;;;2.32;100.00
65832;BME280;52593;42.648;23.332;2023-03-04T05:38:22;94494.59;;;2.46;100.00
65832;BME280;52593;42.648;23.332;2023-03-04T05:40:48;94499.06;;;2.55;100.00
65832;BME280;52593;42.648;23.332;2023-03-04T05:43:14;94490.47;;;2.63;100.00
65832;BME280;52593;42.648;23.332;2023-03-04T05:45:39;94486.88;;;2.74;100.00
65832;BME280;52593;42.648;23.332;2023-03-04T05:48:06;94481.16;;;2.78;100.00
65832;BME280;52593;42.648;23.332;2023-03-04T05:50:32;94490.63;;;2.81;99.90
65832;BME280;52593;42.648;23.332;2023-03-04T05:52:58;94496.34;;;2.76;99.57
65832;BME280;52593;42.648;23.332;2023-03-04T05:55:24;94496.19;;;2.88;100.00
65832;BME280;52593;42.648;23.332;2023-03-04T05:57:50;94496.09;;;2.99;100.00
65832;BME280;52593;42.648;23.332;2023-03-04T06:00:15;94497.44;;;3.03;100.00
65832;BME280;52593;42.648;23.332;2023-03-04T06:02:42;94490.66;;;3.00;100.00
65832;BME280;52593;42.648;23.332;2023-03-04T06:05:12;94503.72;;;3.12;100.00
65832;BME280;52593;42.648;23.332;2023-03-04T06:07:37;94505.53;;;3.21;100.00
65832;BME280;52593;42.648;23.332;2023-03-04T06:10:04;94504.69;;;3.30;99.08
65832;BME280;52593;42.648;23.332;2023-03-04T06:12:30;94497.31;;;3.44;97.78
65832;BME280;52593;42.648;23.332;2023-03-04T06:14:55;94502.84;;;3.50;96.92
65832;BME280;52593;42.648;23.332;2023-03-04T06:17:21;94513.00;;;3.55;95.76
65832;BME280;52593;42.648;23.332;2023-03-04T06:19:46;94503.84;;;3.39;96.22
65832;BME280;52593;42.648;23.332;2023-03-04T06:22:12;94512.78;;;3.19;96.37
65832;BME280;52593;42.648;23.332;2023-03-04T06:24:37;94511.50;;;3.13;97.15
65832;BME280;52593;42.648;23.332;2023-03-04T06:27:02;94506.38;;;3.12;97.65
65832;BME280;52593;42.648;23.332;2023-03-04T06:29:28;94507.63;;;3.17;97.38
65832;BME280;52593;42.648;23.332;2023-03-04T06:31:54;94515.97;;;3.22;97.70
65832;BME280;52593;42.648;23.332;2023-03-04T06:34:19;94514.00;;;3.25;97.24
65832;BME280;52593;42.648;23.332;2023-03-04T06:36:45;94509.69;;;3.33;97.81
65832;BME280;52593;42.648;23.332;2023-03-04T06:39:10;94512.91;;;3.37;97.58
65832;BME280;52593;42.648;23.332;2023-03-04T06:41:36;94517.78;;;3.42;98.07
65832;BME280;52593;42.648;23.332;2023-03-04T06:44:02;94523.19;;;3.50;97.41
65832;BME280;52593;42.648;23.332;2023-03-04T06:46:27;94516.22;;;3.59;97.12
65832;BME280;52593;42.648;23.332;2023-03-04T06:48:53;94529.84;;;3.73;96.68
65832;BME280;52593;42.648;23.332;2023-03-04T06:51:19;94543.06;;;3.83;96.46
65832;BME280;52593;42.648;23.332;2023-03-04T06:53:44;94529.25;;;3.80;96.65
65832;BME280;52593;42.648;23.332;2023-03-04T06:56:11;94524.41;;;3.75;97.21
65832;BME280;52593;42.648;23.332;2023-03-04T06:58:37;94536.50;;;3.87;97.59
65832;BME280;52593;42.648;23.332;2023-03-04T07:01:17;94534.84;;;3.86;97.05
65832;BME280;52593;42.648;23.332;2023-03-04T07:03:44;94527.28;;;3.91;97.63
65832;BME280;52593;42.648;23.332;2023-03-04T07:06:13;94531.47;;;3.84;96.92
65832;BME280;52593;42.648;23.332;2023-03-04T07:08:40;94515.31;;;3.87;96.83
65832;BME280;52593;42.648;23.332;2023-03-04T07:11:05;94520.06;;;3.84;97.01
65832;BME280;52593;42.648;23.332;2023-03-04T07:13:31;94522.44;;;3.87;97.25
65832;BME280;52593;42.648;23.332;2023-03-04T07:15:58;94536.88;;;4.12;97.12
65832;BME280;52593;42.648;23.332;2023-03-04T07:18:24;94540.78;;;4.08;95.36
65832;BME280;52593;42.648;23.332;2023-03-04T07:20:53;94535.38;;;4.00;95.27
65832;BME280;52593;42.648;23.332;2023-03-04T07:23:19;94540.91;;;4.06;95.61
65832;BME280;52593;42.648;23.332;2023-03-04T07:25:44;94538.16;;;3.98;95.40
65832;BME280;52593;42.648;23.332;2023-03-04T07:28:10;94541.09;;;3.85;96.46
65832;BME280;52593;42.648;23.332;2023-03-04T07:30:35;94537.78;;;3.83;97.73
65832;BME280;52593;42.648;23.332;2023-03-04T07:33:01;94544.56;;;3.96;97.43
65832;BME280;52593;42.648;23.332;2023-03-04T07:35:26;94539.94;;;4.07;97.26
65832;BME280;52593;42.648;23.332;2023-03-04T07:37:51;94539.09;;;4.17;95.90
65832;BME280;52593;42.648;23.332;2023-03-04T07:40:17;94533.94;;;4.05;94.24
65832;BME280;52593;42.648;23.332;2023-03-04T07:42:42;94544.38;;;4.07;93.68
65832;BME280;52593;42.648;23.332;2023-03-04T07:45:09;94543.41;;;4.08;94.64
65832;BME280;52593;42.648;23.332;2023-03-04T07:47:34;94544.84;;;3.92;94.82
65832;BME280;52593;42.648;23.332;2023-03-04T07:50:00;94541.19;;;4.03;94.13
65832;BME280;52593;42.648;23.332;2023-03-04T07:52:25;94531.00;;;4.08;92.48
65832;BME280;52593;42.648;23.332;2023-03-04T07:54:51;94531.56;;;4.12;91.85
65832;BME280;52593;42.648;23.332;2023-03-04T07:57:16;94530.41;;;4.24;92.11
65832;BME280;52593;42.648;23.332;2023-03-04T07:59:41;94534.53;;;4.37;91.71
65832;BME280;52593;42.648;23.332;2023-03-04T08:02:08;94527.41;;;4.37;91.12
65832;BME280;52593;42.648;23.332;2023-03-04T08:04:34;94526.63;;;4.27;89.58
65832;BME280;52593;42.648;23.332;2023-03-04T08:07:00;94525.88;;;4.35;91.12
65832;BME280;52593;42.648;23.332;2023-03-04T08:09:25;94525.06;;;4.34;90.86
65832;BME280;52593;42.648;23.332;2023-03-04T08:11:51;94528.50;;;4.44;90.93
65832;BME280;52593;42.648;23.332;2023-03-04T08:14:18;94528.72;;;4.61;90.30
65832;BME280;52593;42.648;23.332;2023-03-04T08:16:44;94527.28;;;4.67;88.76
65832;BME280;52593;42.648;23.332;2023-03-04T08:19:10;94537.03;;;4.66;88.28
65832;BME280;52593;42.648;23.332;2023-03-04T08:21:36;94520.75;;;4.61;89.13
65832;BME280;52593;42.648;23.332;2023-03-04T08:24:02;94526.00;;;4.71;89.48
65832;BME280;52593;42.648;23.332;2023-03-04T08:26:35;94511.84;;;4.80;88.29
65832;BME280;52593;42.648;23.332;2023-03-04T08:29:04;94525.28;;;4.96;87.13
65832;BME280;52593;42.648;23.332;2023-03-04T08:31:30;94524.22;;;4.89;87.80
65832;BME280;52593;42.648;23.332;2023-03-04T08:33:56;94521.19;;;5.02;87.67
65832;BME280;52593;42.648;23.332;2023-03-04T08:36:21;94527.63;;;5.17;85.80
65832;BME280;52593;42.648;23.332;2023-03-04T08:38:47;94517.63;;;5.11;85.38
65832;BME280;52593;42.648;23.332;2023-03-04T08:41:12;94515.28;;;5.08;86.52
65832;BME280;52593;42.648;23.332;2023-03-04T08:43:39;94510.84;;;5.27;86.47
65832;BME280;52593;42.648;23.332;2023-03-04T08:46:05;94508.59;;;5.58;84.08
65832;BME280;52593;42.648;23.332;2023-03-04T08:48:31;94519.56;;;5.63;82.95
65832;BME280;52593;42.648;23.332;2023-03-04T08:50:56;94509.19;;;5.70;82.63
65832;BME280;52593;42.648;23.332;2023-03-04T08:53:22;94515.22;;;5.98;82.27
65832;BME280;52593;42.648;23.332;2023-03-04T08:55:47;94511.44;;;6.35;80.91
65832;BME280;52593;42.648;23.332;2023-03-04T08:58:13;94509.38;;;6.21;78.61
65832;BME280;52593;42.648;23.332;2023-03-04T09:00:41;94507.44;;;6.31;78.28
65832;BME280;52593;42.648;23.332;2023-03-04T09:03:07;94498.09;;;6.19;79.57
65832;BME280;52593;42.648;23.332;2023-03-04T09:05:34;94501.72;;;6.18;80.28
65832;BME280;52593;42.648;23.332;2023-03-04T09:08:00;94501.34;;;6.39;78.16
65832;BME280;52593;42.648;23.332;2023-03-04T09:10:26;94507.75;;;6.28;79.43
65832;BME280;52593;42.648;23.332;2023-03-04T09:12:51;94507.50;;;6.13;80.44
65832;BME280;52593;42.648;23.332;2023-03-04T09:15:17;94505.47;;;6.07;81.17
65832;BME280;52593;42.648;23.332;2023-03-04T09:17:42;94498.50;;;5.88;81.53
65832;BME280;52593;42.648;23.332;2023-03-04T09:20:10;94491.41;;;5.88;80.71
65832;BME280;52593;42.648;23.332;2023-03-04T09:22:37;94498.06;;;5.93;81.13
65832;BME280;52593;42.648;23.332;2023-03-04T09:25:03;94490.38;;;5.89;80.61
65832;BME280;52593;42.648;23.332;2023-03-04T09:27:28;94485.78;;;5.92;79.91
65832;BME280;52593;42.648;23.332;2023-03-04T09:29:54;94493.34;;;6.04;80.35
65832;BME280;52593;42.648;23.332;2023-03-04T09:32:20;94478.09;;;6.06;80.13
65832;BME280;52593;42.648;23.332;2023-03-04T09:34:45;94481.81;;;6.22;78.92
65832;BME280;52593;42.648;23.332;2023-03-04T09:37:11;94486.88;;;6.07;79.00
65832;BME280;52593;42.648;23.332;2023-03-04T09:39:36;94485.06;;;6.07;80.39
65832;BME280;52593;42.648;23.332;2023-03-04T09:42:03;94486.69;;;6.00;79.89
65832;BME280;52593;42.648;23.332;2023-03-04T09:44:40;94479.59;;;6.09;79.47
65832;BME280;52593;42.648;23.332;2023-03-04T09:47:11;94469.91;;;6.00;80.35
65832;BME280;52593;42.648;23.332;2023-03-04T09:49:40;94475.78;;;6.12;80.90
65832;BME280;52593;42.648;23.332;2023-03-04T10:00:13;94473.09;;;6.03;78.67
65832;BME280;52593;42.648;23.332;2023-03-04T10:05:25;94466.88;;;5.95;79.00
65832;BME280;52593;42.648;23.332;2023-03-04T10:07:57;94463.47;;;6.02;78.99
65832;BME280;52593;42.648;23.332;2023-03-04T10:10:29;94464.44;;;6.01;78.67
65832;BME280;52593;42.648;23.332;2023-03-04T10:12:59;94451.59;;;6.23;79.21
65832;BME280;52593;42.648;23.332;2023-03-04T10:15:38;94459.00;;;6.54;78.68
65832;BME280;52593;42.648;23.332;2023-03-04T10:18:43;94448.09;;;6.73;78.96
65832;BME280;52593;42.648;23.332;2023-03-04T10:21:31;94451.50;;;7.08;75.51
65832;BME280;52593;42.648;23.332;2023-03-04T10:24:10;94435.03;;;6.96;76.41
65832;BME280;52593;42.648;23.332;2023-03-04T10:26:37;94434.56;;;7.26;75.34
65832;BME280;52593;42.648;23.332;2023-03-04T10:29:04;94440.72;;;7.51;73.15
65832;BME280;52593;42.648;23.332;2023-03-04T10:31:35;94443.69;;;7.56;72.42
65832;BME280;52593;42.648;23.332;2023-03-04T10:34:04;94428.88;;;7.70;72.78
65832;BME280;52593;42.648;23.332;2023-03-04T10:38:59;94418.72;;;7.74;69.58
65832;BME280;52593;42.648;23.332;2023-03-04T10:41:27;94424.06;;;7.57;71.35
65832;BME280;52593;42.648;23.332;2023-03-04T10:46:38;94408.59;;;7.11;72.88
65832;BME280;52593;42.648;23.332;2023-03-04T10:49:04;94406.44;;;7.07;73.69
65832;BME280;52593;42.648;23.332;2023-03-04T10:51:30;94407.44;;;7.06;73.57
65832;BME280;52593;42.648;23.332;2023-03-04T10:53:58;94410.41;;;7.03;73.71
65832;BME280;52593;42.648;23.332;2023-03-04T10:56:41;94404.56;;;6.83;73.54
65832;BME280;52593;42.648;23.332;2023-03-04T10:59:30;94408.22;;;6.73;73.92
65832;BME280;52593;42.648;23.332;2023-03-04T11:01:57;94401.44;;;6.71;74.97
65832;BME280;52593;42.648;23.332;2023-03-04T11:04:25;94390.47;;;6.74;75.10
65832;BME280;52593;42.648;23.332;2023-03-04T11:06:51;94390.09;;;6.69;73.57
65832;BME280;52593;42.648;23.332;2023-03-04T11:09:23;94386.09;;;6.48;74.61
65832;BME280;52593;42.648;23.332;2023-03-04T11:11:51;94381.91;;;6.46;75.03
65832;BME280;52593;42.648;23.332;2023-03-04T11:14:23;94380.59;;;6.58;75.86
65832;BME280;52593;42.648;23.332;2023-03-04T11:16:55;94365.09;;;6.29;75.60
65832;BME280;52593;42.648;23.332;2023-03-04T11:19:22;94378.91;;;6.40;77.46
65832;BME280;52593;42.648;23.332;2023-03-04T11:21:50;94368.66;;;6.62;76.90
65832;BME280;52593;42.648;23.332;2023-03-04T11:24:21;94348.25;;;6.71;76.08
65832;BME280;52593;42.648;23.332;2023-03-04T11:27:05;94359.88;;;6.94;76.07
65832;BME280;52593;42.648;23.332;2023-03-04T11:29:41;94345.25;;;6.99;75.49
65832;BME280;52593;42.648;23.332;2023-03-04T11:37:38;94343.44;;;6.91;77.04
65832;BME280;52593;42.648;23.332;2023-03-04T11:40:20;94345.06;;;6.92;76.60
65832;BME280;52593;42.648;23.332;2023-03-04T11:42:52;94340.75;;;6.99;75.58
65832;BME280;52593;42.648;23.332;2023-03-04T11:51:20;94329.81;;;6.94;77.39
65832;BME280;52593;42.648;23.332;2023-03-04T11:54:07;94325.81;;;7.06;76.13
65832;BME280;52593;42.648;23.332;2023-03-04T11:56:44;94322.13;;;7.07;74.97
65832;BME280;52593;42.648;23.332;2023-03-04T12:02:11;94319.16;;;6.94;75.08
65832;BME280;52593;42.648;23.332;2023-03-04T12:07:45;94319.97;;;6.70;76.98
65832;BME280;52593;42.648;23.332;2023-03-04T12:21:35;94307.28;;;7.38;74.50
65832;BME280;52593;42.648;23.332;2023-03-04T12:27:20;94292.69;;;7.17;75.86
65832;BME280;52593;42.648;23.332;2023-03-04T12:33:10;94294.66;;;7.31;74.80
65832;BME280;52593;42.648;23.332;2023-03-04T12:44:15;94288.22;;;7.01;75.53
65832;BME280;52593;42.648;23.332;2023-03-04T12:46:56;94277.09;;;6.89;76.34
65832;BME280;52593;42.648;23.332;2023-03-04T12:52:19;94276.38;;;7.28;75.52
65832;BME280;52593;42.648;23.332;2023-03-04T12:54:52;94265.03;;;7.35;74.77
65832;BME280;52593;42.648;23.332;2023-03-04T12:57:24;94269.22;;;7.29;75.18
65832;BME280;52593;42.648;23.332;2023-03-04T13:02:55;94260.72;;;7.25;75.70
65832;BME280;52593;42.648;23.332;2023-03-04T13:08:25;94250.69;;;7.52;74.85
65832;BME280;52593;42.648;23.332;2023-03-04T13:10:52;94252.16;;;7.63;73.92
65832;BME280;52593;42.648;23.332;2023-03-04T13:13:36;94236.69;;;7.50;74.12
65832;BME280;52593;42.648;23.332;2023-03-04T13:16:26;94247.13;;;7.20;74.80
65832;BME280;52593;42.648;23.332;2023-03-04T13:18:51;94236.72;;;6.94;75.20
65832;BME280;52593;42.648;23.332;2023-03-04T13:21:28;94240.03;;;6.88;76.18
65832;BME280;52593;42.648;23.332;2023-03-04T13:23:56;94231.50;;;7.09;75.78
65832;BME280;52593;42.648;23.332;2023-03-04T13:26:33;94235.63;;;7.20;75.24
65832;BME280;52593;42.648;23.332;2023-03-04T13:42:51;94219.47;;;7.29;75.50
65832;BME280;52593;42.648;23.332;2023-03-04T13:45:35;94221.50;;;7.27;75.37
65832;BME280;52593;42.648;23.332;2023-03-04T13:48:03;94219.00;;;7.18;76.83
65832;BME280;52593;42.648;23.332;2023-03-04T13:50:45;94223.25;;;7.43;74.24
65832;BME280;52593;42.648;23.332;2023-03-04T13:53:44;94221.63;;;7.34;75.81
65832;BME280;52593;42.648;23.332;2023-03-04T13:56:21;94221.63;;;7.34;76.07
65832;BME280;52593;42.648;23.332;2023-03-04T14:04:09;94204.69;;;7.27;76.57
65832;BME280;52593;42.648;23.332;2023-03-04T14:06:40;94205.69;;;7.26;76.97
65832;BME280;52593;42.648;23.332;2023-03-04T14:09:14;94210.50;;;7.30;76.38
65832;BME280;52593;42.648;23.332;2023-03-04T14:11:40;94203.50;;;7.29;76.64
65832;BME280;52593;42.648;23.332;2023-03-04T14:14:11;94203.31;;;7.39;77.21
65832;BME280;52593;42.648;23.332;2023-03-04T14:16:39;94208.59;;;7.47;76.25
65832;BME280;52593;42.648;23.332;2023-03-04T14:19:19;94186.44;;;7.55;75.68
65832;BME280;52593;42.648;23.332;2023-03-04T14:21:47;94179.72;;;7.67;73.86
65832;BME280;52593;42.648;23.332;2023-03-04T14:24:15;94197.50;;;7.67;74.90
65832;BME280;52593;42.648;23.332;2023-03-04T14:26:41;94195.81;;;7.74;74.31
65832;BME280;52593;42.648;23.332;2023-03-04T14:29:24;94189.34;;;7.68;73.61
65832;BME280;52593;42.648;23.332;2023-03-04T14:31:51;94189.88;;;7.64;73.26
65832;BME280;52593;42.648;23.332;2023-03-04T14:34:24;94191.19;;;7.68;74.03